createdAt,value
2022-10-17T00:00:12.453Z,101878.00
2022-10-17T00:03:16.822Z,101879.72
2022-10-17T00:06:20.055Z,101876.94
2022-10-17T00:09:23.117Z,101882.88
2022-10-17T00:12:26.489Z,101875.94
2022-10-17T00:15:31.286Z,101873.78
2022-10-17T00:18:34.416Z,101873.25
2022-10-17T00:21:38.779Z,101879.19
2022-10-17T00:24:42.452Z,101879.19
2022-10-17T00:27:46.591Z,101886.19
2022-10-17T00:31:17.920Z,101891.84
2022-10-17T00:34:22.878Z,101888.16
2022-10-17T00:37:27.929Z,101891.37
2022-10-17T00:40:31.127Z,101884.66
2022-10-17T00:43:59.651Z,101885.66
2022-10-17T00:47:06.115Z,101883.94
2022-10-17T00:50:13.143Z,101881.50
2022-10-17T00:53:18.369Z,101883.31
2022-10-17T00:56:21.504Z,101883.12
2022-10-17T00:59:25.978Z,101883.94
2022-10-17T01:02:30.406Z,101884.94
2022-10-17T01:05:35.741Z,101882.03
2022-10-17T01:08:39.706Z,101881.78
2022-10-17T01:12:13.640Z,101878.72
2022-10-17T01:15:32.736Z,101877.72
2022-10-17T01:19:11.705Z,101875.62
2022-10-17T01:22:27.972Z,101872.09
2022-10-17T01:25:49.508Z,101873.63
2022-10-17T01:29:11.761Z,101883.16
2022-10-17T01:32:36.592Z,101880.44
2022-10-17T01:35:48.069Z,101874.44
2022-10-17T01:39:01.017Z,101878.66
2022-10-17T01:42:13.240Z,101872.62
2022-10-17T01:45:25.805Z,101878.75
2022-10-17T01:48:35.724Z,101879.66
2022-10-17T01:51:43.610Z,101881.06
2022-10-17T01:54:50.855Z,101882.97
2022-10-17T01:57:58.394Z,101883.94
2022-10-17T02:01:05.687Z,101883.56
2022-10-17T02:04:11.766Z,101888.31
2022-10-17T02:07:14.915Z,101880.31
2022-10-17T02:10:43.423Z,101885.06
2022-10-17T02:13:53.763Z,101890.53
2022-10-17T02:17:11.845Z,101888.75
2022-10-17T02:20:38.279Z,101885.34
2022-10-17T02:23:52.382Z,101895.94
2022-10-17T02:27:31.531Z,101893.16
2022-10-17T02:30:44.682Z,101896.84
2022-10-17T02:34:03.528Z,101899.16
2022-10-17T02:37:15.699Z,101898.50
2022-10-17T02:40:24.067Z,101900.00
2022-10-17T02:43:28.740Z,101896.59
2022-10-17T02:46:37.155Z,101898.13
2022-10-17T02:49:47.415Z,101901.63
2022-10-17T02:53:01.273Z,101906.81
2022-10-17T02:56:14.475Z,101912.22
2022-10-17T02:59:21.771Z,101910.12
2022-10-17T03:02:25.729Z,101917.03
2022-10-17T03:05:30.866Z,101924.84
2022-10-17T03:08:35.339Z,101922.44
2022-10-17T03:11:40.469Z,101925.13
2022-10-17T03:14:44.563Z,101915.53
2022-10-17T03:17:49.736Z,101918.84
2022-10-17T03:20:52.756Z,101917.03
2022-10-17T03:23:56.805Z,101922.44
2022-10-17T03:27:01.166Z,101922.94
2022-10-17T03:30:07.262Z,101921.16
2022-10-17T03:33:12.538Z,101936.66
2022-10-17T03:36:18.736Z,101930.47
2022-10-17T03:39:22.355Z,101931.19
2022-10-17T03:42:25.592Z,101941.59
2022-10-17T03:45:28.868Z,101945.69
2022-10-17T03:48:32.573Z,101953.50
2022-10-17T03:51:36.123Z,101957.69
2022-10-17T03:54:39.720Z,101949.09
2022-10-17T03:57:45.422Z,101960.50
2022-10-17T04:00:49.401Z,101969.31
2022-10-17T04:03:55.015Z,101968.41
2022-10-17T04:06:57.748Z,101971.91
2022-10-17T04:10:01.954Z,101976.31
2022-10-17T04:13:06.922Z,101977.09
2022-10-17T04:16:14.306Z,101974.69
2022-10-17T04:19:40.032Z,101977.22
2022-10-17T04:22:43.763Z,101977.22
2022-10-17T04:25:48.726Z,101981.22
2022-10-17T04:28:59.193Z,101977.81
2022-10-17T04:32:02.521Z,101983.72
2022-10-17T04:35:10.252Z,101984.38
2022-10-17T04:38:19.528Z,101990.38
2022-10-17T04:41:26.769Z,101993.69
2022-10-17T04:44:34.228Z,101988.50
2022-10-17T04:47:37.687Z,101993.50
2022-10-17T04:50:42.706Z,102000.19
2022-10-17T04:53:55.050Z,102009.47
2022-10-17T04:56:58.426Z,102005.06
2022-10-17T05:00:03.350Z,102005.16
2022-10-17T05:03:15.271Z,102004.16
2022-10-17T05:06:25.272Z,102008.88
2022-10-17T05:09:31.920Z,102008.88
2022-10-17T05:12:35.522Z,102016.56
2022-10-17T05:15:47.476Z,102009.66
2022-10-17T05:18:57.781Z,102014.28
2022-10-17T05:22:08.276Z,102017.88
2022-10-17T05:25:14.326Z,102020.78
2022-10-17T05:28:17.784Z,102030.53
2022-10-17T05:31:22.240Z,102033.81
2022-10-17T05:34:25.372Z,102041.91
2022-10-17T05:37:30.594Z,102035.78
2022-10-17T05:40:39.479Z,102047.09
2022-10-17T05:43:44.841Z,102050.19
2022-10-17T05:46:56.298Z,102057.19
2022-10-17T05:50:00.179Z,102060.44
2022-10-17T05:53:06.450Z,102060.44
2022-10-17T05:56:15.255Z,102062.84
2022-10-17T05:59:18.346Z,102067.06
2022-10-17T06:02:22.823Z,102066.66
2022-10-17T06:05:26.269Z,102068.81
2022-10-17T06:08:29.670Z,102074.34
2022-10-17T06:11:33.136Z,102075.78
2022-10-17T06:14:40.396Z,102081.22
2022-10-17T06:17:44.271Z,102090.31
2022-10-17T06:20:48.062Z,102088.16
2022-10-17T06:23:54.432Z,102091.59
2022-10-17T06:26:58.091Z,102096.44
2022-10-17T06:30:04.242Z,102097.22
2022-10-17T06:34:26.226Z,102085.59
2022-10-17T06:38:50.461Z,102102.22
2022-10-17T06:42:11.578Z,102100.53
2022-10-17T06:45:15.124Z,102098.75
2022-10-17T06:48:35.117Z,102102.53
2022-10-17T06:51:42.270Z,102103.19
2022-10-17T06:54:50.201Z,102114.16
2022-10-17T06:58:06.282Z,102115.16
2022-10-17T07:01:21.503Z,102121.37
2022-10-17T07:04:39.449Z,102117.63
2022-10-17T07:09:11.011Z,102134.09
2022-10-17T07:16:39.349Z,102130.25
2022-10-17T07:19:44.324Z,102124.97
2022-10-17T07:22:47.543Z,102129.38
2022-10-17T07:25:51.735Z,102132.09
2022-10-17T07:29:02.002Z,102134.75
2022-10-17T07:32:08.762Z,102136.72
2022-10-17T07:35:14.254Z,102138.50
2022-10-17T07:38:19.075Z,102137.81
2022-10-17T07:41:23.249Z,102137.06
2022-10-17T07:44:29.521Z,102137.78
2022-10-17T07:47:39.621Z,102133.31
2022-10-17T07:50:46.213Z,102144.44
2022-10-17T07:53:50.475Z,102138.75
2022-10-17T07:56:56.664Z,102142.78
2022-10-17T08:00:07.731Z,102149.25
2022-10-17T08:03:22.822Z,102144.38
2022-10-17T08:06:28.729Z,102137.56
2022-10-17T08:09:33.281Z,102140.50
2022-10-17T08:12:38.333Z,102143.06
2022-10-17T08:15:42.906Z,102153.69
2022-10-17T08:18:46.959Z,102152.88
2022-10-17T08:21:54.523Z,102154.84
2022-10-17T08:25:10.927Z,102149.47
2022-10-17T08:28:41.808Z,102161.63
2022-10-17T08:31:47.793Z,102160.09
2022-10-17T08:38:51.648Z,102161.56
2022-10-17T08:41:56.184Z,102166.97
2022-10-17T08:45:08.388Z,102159.41
2022-10-17T08:48:16.635Z,102158.31
2022-10-17T08:51:30.259Z,102160.47
2022-10-17T08:54:48.932Z,102158.81
2022-10-17T08:57:53.752Z,102166.59
2022-10-17T09:01:03.693Z,102160.91
2022-10-17T09:04:28.707Z,102160.78
2022-10-17T09:07:57.596Z,102158.13
2022-10-17T09:11:16.988Z,102167.53
2022-10-17T09:14:43.465Z,102166.44
2022-10-17T09:18:12.280Z,102164.91
2022-10-17T09:21:23.539Z,102159.31
2022-10-17T09:24:36.913Z,102164.59
2022-10-17T09:27:46.268Z,102151.78
2022-10-17T09:31:07.958Z,102156.09
2022-10-17T09:34:13.484Z,102159.00
2022-10-17T09:37:17.770Z,102151.22
2022-10-17T09:40:31.876Z,102159.16
2022-10-17T09:43:34.880Z,102159.69
2022-10-17T09:46:39.048Z,102160.72
2022-10-17T09:49:46.650Z,102155.53
2022-10-17T09:52:50.901Z,102158.50
2022-10-17T09:55:59.478Z,102151.53
2022-10-17T09:59:40.064Z,102154.72
2022-10-17T10:02:43.565Z,102153.81
2022-10-17T10:05:59.988Z,102152.63
2022-10-17T10:09:05.584Z,102142.44
2022-10-17T10:12:22.643Z,102146.94
2022-10-17T10:15:38.877Z,102144.53
2022-10-17T10:18:43.319Z,102139.75
2022-10-17T10:21:59.820Z,102146.00
2022-10-17T10:25:18.442Z,102140.22
2022-10-17T10:28:28.352Z,102142.59
2022-10-17T10:31:40.381Z,102138.63
2022-10-17T10:35:04.283Z,102140.72
2022-10-17T10:38:18.010Z,102137.56
2022-10-17T10:41:21.814Z,102141.41
2022-10-17T10:44:30.346Z,102139.66
2022-10-17T10:47:35.658Z,102129.25
2022-10-17T10:50:45.601Z,102133.97
2022-10-17T10:54:05.232Z,102127.78
2022-10-17T10:57:20.971Z,102120.19
2022-10-17T11:00:28.116Z,102120.25
2022-10-17T11:03:42.015Z,102123.44
2022-10-17T11:06:51.055Z,102116.31
2022-10-17T11:09:55.458Z,102118.00
2022-10-17T11:13:30.816Z,102112.59
2022-10-17T11:16:50.358Z,102114.34
2022-10-17T11:20:20.479Z,102109.94
2022-10-17T11:23:48.597Z,102104.69
2022-10-17T11:27:12.292Z,102099.50
2022-10-17T11:30:18.354Z,102100.28
2022-10-17T11:33:29.212Z,102103.72
2022-10-17T11:36:36.981Z,102095.91
2022-10-17T11:40:17.209Z,102095.75
2022-10-17T11:43:38.373Z,102091.41
2022-10-17T11:46:46.384Z,102097.50
2022-10-17T11:49:57.489Z,102086.09
2022-10-17T11:53:17.577Z,102088.97
2022-10-17T11:56:42.772Z,102075.44
2022-10-17T12:00:21.301Z,102085.03
2022-10-17T12:03:57.050Z,102076.03
2022-10-17T12:07:26.367Z,102076.09
2022-10-17T12:10:53.912Z,102081.37
2022-10-17T12:13:58.947Z,102079.62
2022-10-17T12:17:43.676Z,102075.91
2022-10-17T12:21:00.306Z,102068.56
2022-10-17T12:24:05.772Z,102065.84
2022-10-17T12:27:30.359Z,102062.19
2022-10-17T12:30:49.101Z,102057.59
2022-10-17T12:34:09.544Z,102059.41
2022-10-17T12:38:24.443Z,102052.28
2022-10-17T12:41:45.326Z,102047.06
2022-10-17T12:44:52.381Z,102052.09
2022-10-17T12:47:56.324Z,102047.63
2022-10-17T12:51:34.862Z,102041.44
2022-10-17T15:36:43.292Z,102032.38
2022-10-17T15:39:58.102Z,102029.19
2022-10-17T15:43:04.060Z,102030.47
2022-10-17T15:46:23.091Z,102031.75
2022-10-17T15:49:28.087Z,102034.69
2022-10-17T15:52:37.082Z,102037.69
2022-10-17T15:55:49.207Z,102038.09
2022-10-17T15:59:04.061Z,102035.00
2022-10-17T16:02:19.103Z,102042.41
2022-10-17T16:05:28.193Z,102041.88
2022-10-17T16:08:33.183Z,102048.53
2022-10-17T16:11:42.405Z,102046.25
2022-10-17T16:14:50.081Z,102049.41
2022-10-17T16:18:01.634Z,102055.88
2022-10-17T16:21:18.096Z,102058.94
2022-10-17T16:24:25.295Z,102062.06
2022-10-17T16:27:38.273Z,102057.34
2022-10-17T16:30:56.255Z,102059.56
2022-10-17T16:34:06.728Z,102067.97
2022-10-17T16:37:11.142Z,102066.75
2022-10-17T16:40:24.954Z,102072.53
2022-10-17T16:43:38.142Z,102073.91
2022-10-17T16:47:19.094Z,102067.37
2022-10-17T16:50:24.685Z,102072.19
2022-10-17T16:53:44.082Z,102068.34
2022-10-17T16:56:58.188Z,102079.41
2022-10-17T17:00:04.013Z,102083.56
2022-10-17T17:03:23.088Z,102080.63
2022-10-17T17:06:29.821Z,102080.38
2022-10-17T17:09:35.305Z,102085.28
2022-10-17T17:12:43.895Z,102078.94
2022-10-17T17:15:54.056Z,102077.72
2022-10-17T17:19:01.299Z,102074.06
2022-10-17T17:22:15.107Z,102077.25
2022-10-17T17:25:26.980Z,102086.72
2022-10-17T17:28:37.385Z,102089.25
2022-10-17T17:31:46.185Z,102093.53
2022-10-17T17:34:51.620Z,102089.00
2022-10-17T17:37:57.368Z,102089.62
2022-10-17T17:41:10.323Z,102087.75
2022-10-17T17:44:16.778Z,102087.44
2022-10-17T17:47:25.073Z,102093.31
2022-10-17T17:50:37.509Z,102087.72
2022-10-17T17:53:57.915Z,102090.87
2022-10-17T17:57:02.561Z,102083.56
2022-10-17T18:00:14.225Z,102096.44
2022-10-17T18:03:40.312Z,102090.03
2022-10-17T18:07:02.081Z,102089.66
2022-10-17T18:10:21.993Z,102092.03
2022-10-17T18:13:45.299Z,102090.91
2022-10-17T18:17:10.269Z,102087.09
2022-10-17T18:20:16.411Z,102088.41
2022-10-17T18:23:26.653Z,102090.81
2022-10-17T18:26:38.163Z,102082.81
2022-10-17T18:29:48.091Z,102079.81
2022-10-17T18:33:08.045Z,102079.66
2022-10-17T18:36:13.785Z,102082.06
2022-10-17T18:39:25.133Z,102084.59
2022-10-17T18:42:41.124Z,102089.62
2022-10-17T18:45:57.170Z,102087.75
2022-10-17T18:49:19.194Z,102090.13
2022-10-17T18:52:22.824Z,102086.41
2022-10-17T18:55:32.012Z,102091.41
2022-10-17T18:58:50.554Z,102083.41
2022-10-17T19:01:58.165Z,102089.28
2022-10-17T19:05:05.071Z,102086.44
2022-10-17T19:08:08.622Z,102094.03
2022-10-17T19:11:17.198Z,102095.59
2022-10-17T19:14:22.316Z,102092.66
2022-10-17T19:17:26.246Z,102092.13
2022-10-17T19:20:34.284Z,102091.88
2022-10-17T19:23:54.089Z,102094.25
2022-10-17T19:27:09.032Z,102095.75
2022-10-17T19:30:26.509Z,102106.12
2022-10-17T19:33:37.825Z,102104.16
2022-10-17T19:36:42.031Z,102102.78
2022-10-17T19:39:48.232Z,102100.91
2022-10-17T19:42:53.067Z,102098.91
2022-10-17T19:46:02.597Z,102102.97
2022-10-17T19:49:18.370Z,102091.09
2022-10-17T19:52:23.215Z,102082.78
2022-10-17T19:55:26.466Z,102092.25
2022-10-17T19:58:44.385Z,102097.22
2022-10-17T20:01:51.327Z,102095.50
2022-10-17T20:05:13.787Z,102095.34
2022-10-17T20:08:20.169Z,102093.22
2022-10-17T20:11:29.457Z,102091.97
2022-10-17T20:14:41.037Z,102087.97
2022-10-17T20:17:46.101Z,102094.00
2022-10-17T20:20:49.876Z,102092.13
2022-10-17T20:23:56.076Z,102093.56
2022-10-17T20:27:03.150Z,102096.09
2022-10-17T20:30:08.320Z,102101.31
2022-10-17T20:33:31.718Z,102094.56
2022-10-17T20:36:39.080Z,102095.53
2022-10-17T20:39:42.950Z,102105.00
2022-10-17T20:42:46.844Z,102104.03
2022-10-17T20:45:51.138Z,102099.31
2022-10-17T20:49:12.572Z,102101.69
2022-10-17T20:53:31.493Z,102092.69
2022-10-17T20:56:34.320Z,102098.47
2022-10-17T20:59:38.881Z,102095.41
2022-10-17T21:02:41.901Z,102086.25
2022-10-17T21:05:45.652Z,102092.09
2022-10-17T21:08:57.245Z,102084.28
2022-10-17T21:12:02.751Z,102087.34
2022-10-17T21:15:09.974Z,102085.09
2022-10-17T21:18:12.771Z,102088.34
2022-10-17T21:21:29.614Z,102085.66
2022-10-17T21:24:32.259Z,102095.28
2022-10-17T21:27:35.790Z,102094.03
2022-10-17T21:30:39.557Z,102094.63
2022-10-17T21:33:52.846Z,102096.16
2022-10-17T21:36:55.543Z,102094.34
2022-10-17T21:39:59.575Z,102093.53
2022-10-17T21:43:03.192Z,102095.69
2022-10-17T21:46:18.267Z,102095.34
2022-10-17T21:49:24.664Z,102091.44
2022-10-17T21:52:28.209Z,102094.84
2022-10-17T21:55:31.489Z,102092.06
2022-10-17T21:58:34.504Z,102091.88
2022-10-17T22:01:43.120Z,102091.78
2022-10-17T22:04:46.265Z,102095.72
2022-10-17T22:07:49.023Z,102094.09
2022-10-17T22:10:52.666Z,102088.72
2022-10-17T22:14:00.547Z,102087.81
2022-10-17T22:17:06.187Z,102088.00
2022-10-17T22:20:14.005Z,102088.00
2022-10-17T22:23:19.114Z,102086.91
2022-10-17T22:26:22.093Z,102084.94
2022-10-17T22:29:26.323Z,102083.94
2022-10-17T22:32:28.984Z,102086.53
2022-10-17T22:35:32.007Z,102084.03
2022-10-17T22:38:35.985Z,102088.34
2022-10-17T22:41:39.607Z,102085.47
2022-10-17T22:44:42.352Z,102072.75
2022-10-17T22:47:45.272Z,102071.53
2022-10-17T22:50:50.443Z,102074.50
2022-10-17T22:53:53.465Z,102078.53
2022-10-17T22:56:56.724Z,102077.53
2022-10-17T23:00:00.436Z,102080.94
2022-10-17T23:03:03.592Z,102082.75
2022-10-17T23:06:06.844Z,102073.84
2022-10-17T23:09:13.194Z,102073.94
2022-10-17T23:12:16.890Z,102084.16
2022-10-17T23:15:19.534Z,102084.78
2022-10-17T23:18:23.628Z,102071.47
2022-10-17T23:21:28.120Z,102069.47
2022-10-17T23:24:33.736Z,102068.38
2022-10-17T23:27:36.367Z,102064.41
2022-10-17T23:30:40.699Z,102061.31
2022-10-17T23:33:47.430Z,102051.50
2022-10-17T23:36:56.774Z,102054.91
2022-10-17T23:40:01.255Z,102058.44
2022-10-17T23:43:06.310Z,102054.81
2022-10-17T23:46:11.556Z,102055.41
2022-10-17T23:49:14.988Z,102044.69
2022-10-17T23:52:17.862Z,102048.91
2022-10-17T23:55:21.201Z,102046.19
2022-10-17T23:58:24.194Z,102041.00
